RYR492F EBCI-LOWW
Flight info
| Callsign | RYR492F |
|---|---|
| Flight time | N/A |
| Altitude | 35000 |
| Route | SOPOK Y863 OGLOR DCT EMGOD DCT BOMBI DCT BOREP DCT ENITA DCT ETVIS DCT BUDEX BUDEX2W |
| Aircraft | A320/M-SDE3FGHIRWY/LB1 |
Departure
| Time | 2026-05-07 14:11 |
|---|---|
| Airport | Brussels South Charleroi Airport (EBCI) |
Arrival
| Time | N/A |
|---|---|
| Airport | Vienna International Airport (LOWW) |
| Time | Latitude | Longitude | Altitude | Speed | Heading |
|---|---|---|---|---|---|
| 2026-05-07 13:40 | 50.46927 | 4.47287 | 585 ft | 0 kts | 335° |
| 2026-05-07 14:05 | 50.46907 | 4.47302 | 584 ft | 4 kts | 334° |
| 2026-05-07 14:05 | 50.46882 | 4.47315 | 584 ft | 4 kts | 350° |
| 2026-05-07 14:05 | 50.46858 | 4.47319 | 586 ft | 2 kts | 358° |
| 2026-05-07 14:05 | 50.46852 | 4.47319 | 586 ft | 1 kts | 358° |
| 2026-05-07 14:06 | 50.46853 | 4.47319 | 586 ft | 0 kts | 358° |
| 2026-05-07 14:08 | 50.46874 | 4.47333 | 585 ft | 6 kts | 39° |
| 2026-05-07 14:08 | 50.46902 | 4.47417 | 585 ft | 11 kts | 68° |
| 2026-05-07 14:08 | 50.46936 | 4.47538 | 586 ft | 13 kts | 66° |
| 2026-05-07 14:08 | 50.46902 | 4.47618 | 588 ft | 8 kts | 160° |
| 2026-05-07 14:09 | 50.46865 | 4.47640 | 590 ft | 3 kts | 157° |
| 2026-05-07 14:09 | 50.46861 | 4.47643 | 591 ft | 0 kts | 157° |
| 2026-05-07 14:09 | 50.46843 | 4.47655 | 592 ft | 5 kts | 157° |
| 2026-05-07 14:09 | 50.46795 | 4.47690 | 595 ft | 8 kts | 154° |
| 2026-05-07 14:10 | 50.46752 | 4.47721 | 595 ft | 6 kts | 155° |
| 2026-05-07 14:10 | 50.46718 | 4.47746 | 594 ft | 6 kts | 156° |
| 2026-05-07 14:10 | 50.46697 | 4.47724 | 593 ft | 4 kts | 250° |
| 2026-05-07 14:10 | 50.46683 | 4.47690 | 593 ft | 4 kts | 246° |
| 2026-05-07 14:11 | 50.46635 | 4.47519 | 596 ft | 47 kts | 245° |
| 2026-05-07 14:11 | 50.46395 | 4.46697 | 592 ft | 115 kts | 245° |
| 2026-05-07 14:11 | 50.45980 | 4.45285 | 615 ft | 166 kts | 244° |
| 2026-05-07 14:11 | 50.45515 | 4.43707 | 1356 ft | 153 kts | 246° |
| 2026-05-07 14:12 | 50.45094 | 4.42225 | 2007 ft | 152 kts | 245° |
| 2026-05-07 14:12 | 50.44636 | 4.40617 | 2208 ft | 172 kts | 245° |
| 2026-05-07 14:12 | 50.44107 | 4.38770 | 2308 ft | 200 kts | 245° |
| 2026-05-07 14:12 | 50.43437 | 4.36707 | 2532 ft | 225 kts | 231° |
| 2026-05-07 14:13 | 50.42145 | 4.35207 | 2868 ft | 245 kts | 196° |
| 2026-05-07 14:13 | 50.40422 | 4.35197 | 3402 ft | 257 kts | 158° |
| 2026-05-07 14:13 | 50.39009 | 4.36865 | 4169 ft | 260 kts | 123° |
| 2026-05-07 14:13 | 50.38377 | 4.39519 | 5004 ft | 263 kts | 102° |
| 2026-05-07 14:14 | 50.38072 | 4.42370 | 5853 ft | 267 kts | 97° |
| 2026-05-07 14:14 | 50.37852 | 4.45284 | 6679 ft | 271 kts | 96° |
| 2026-05-07 14:14 | 50.37647 | 4.48243 | 7447 ft | 276 kts | 97° |
| 2026-05-07 14:14 | 50.37426 | 4.51260 | 8212 ft | 281 kts | 98° |
| 2026-05-07 14:15 | 50.37184 | 4.54290 | 8980 ft | 285 kts | 98° |
| 2026-05-07 14:15 | 50.36918 | 4.57395 | 9757 ft | 290 kts | 98° |
| 2026-05-07 14:15 | 50.36635 | 4.60554 | 10378 ft | 300 kts | 99° |
| 2026-05-07 14:15 | 50.36327 | 4.63913 | 10588 ft | 323 kts | 99° |
| 2026-05-07 14:16 | 50.35995 | 4.67496 | 10931 ft | 339 kts | 99° |
| 2026-05-07 14:16 | 50.35653 | 4.71182 | 11569 ft | 345 kts | 99° |
| 2026-05-07 14:16 | 50.35306 | 4.74930 | 12256 ft | 349 kts | 99° |
| 2026-05-07 14:16 | 50.34954 | 4.78709 | 12952 ft | 353 kts | 99° |
| 2026-05-07 14:17 | 50.34595 | 4.82543 | 13637 ft | 357 kts | 99° |
| 2026-05-07 14:17 | 50.34230 | 4.86417 | 14262 ft | 361 kts | 99° |
| 2026-05-07 14:17 | 50.33858 | 4.90319 | 14867 ft | 365 kts | 99° |
| 2026-05-07 14:17 | 50.33479 | 4.94267 | 15455 ft | 369 kts | 99° |
| 2026-05-07 14:18 | 50.33095 | 4.98268 | 16062 ft | 372 kts | 99° |
| 2026-05-07 14:18 | 50.32714 | 5.02285 | 16655 ft | 376 kts | 99° |
| 2026-05-07 14:18 | 50.32328 | 5.06346 | 17228 ft | 379 kts | 99° |
| 2026-05-07 14:18 | 50.31936 | 5.10451 | 17815 ft | 383 kts | 99° |
| 2026-05-07 14:19 | 50.31537 | 5.14591 | 18402 ft | 386 kts | 99° |
| 2026-05-07 14:19 | 50.31268 | 5.17352 | 18738 ft | 388 kts | 99° |
| 2026-05-07 14:19 | 50.30861 | 5.21539 | 19255 ft | 391 kts | 99° |
| 2026-05-07 14:19 | 50.30450 | 5.25770 | 19773 ft | 394 kts | 99° |
| 2026-05-07 14:20 | 50.29897 | 5.31407 | 20457 ft | 398 kts | 99° |
| 2026-05-07 14:20 | 50.29612 | 5.34295 | 20808 ft | 400 kts | 99° |
| 2026-05-07 14:20 | 50.29184 | 5.38605 | 21323 ft | 403 kts | 99° |
| 2026-05-07 14:20 | 50.28753 | 5.42950 | 21833 ft | 406 kts | 99° |
| 2026-05-07 14:21 | 50.28318 | 5.47326 | 22337 ft | 408 kts | 99° |
| 2026-05-07 14:21 | 50.27878 | 5.51733 | 22830 ft | 411 kts | 99° |
| 2026-05-07 14:21 | 50.27433 | 5.56166 | 23285 ft | 415 kts | 100° |
| 2026-05-07 14:21 | 50.26983 | 5.60636 | 23719 ft | 418 kts | 100° |
| 2026-05-07 14:22 | 50.26376 | 5.66617 | 24231 ft | 422 kts | 100° |
| 2026-05-07 14:22 | 50.26069 | 5.69620 | 24485 ft | 423 kts | 100° |
| 2026-05-07 14:22 | 50.25606 | 5.74173 | 24862 ft | 426 kts | 100° |
| 2026-05-07 14:22 | 50.25062 | 5.78724 | 25228 ft | 427 kts | 105° |
| 2026-05-07 14:23 | 50.24313 | 5.83232 | 25590 ft | 429 kts | 105° |
| 2026-05-07 14:23 | 50.23553 | 5.87755 | 25947 ft | 431 kts | 105° |
| 2026-05-07 14:23 | 50.22776 | 5.92338 | 26287 ft | 433 kts | 105° |
| 2026-05-07 14:23 | 50.22012 | 5.96833 | 26628 ft | 435 kts | 105° |
| 2026-05-07 14:24 | 50.21235 | 6.01406 | 26961 ft | 437 kts | 105° |
| 2026-05-07 14:24 | 50.20451 | 6.06005 | 27294 ft | 439 kts | 105° |
| 2026-05-07 14:24 | 50.19659 | 6.10619 | 27617 ft | 441 kts | 105° |
| 2026-05-07 14:24 | 50.18889 | 6.15272 | 27941 ft | 443 kts | 102° |
| 2026-05-07 14:25 | 50.18482 | 6.20045 | 28267 ft | 446 kts | 93° |
| 2026-05-07 14:25 | 50.18552 | 6.24889 | 28573 ft | 448 kts | 84° |
| 2026-05-07 14:25 | 50.18869 | 6.29726 | 28864 ft | 449 kts | 84° |
| 2026-05-07 14:25 | 50.19181 | 6.34597 | 29164 ft | 451 kts | 84° |
| 2026-05-07 14:26 | 50.19487 | 6.39487 | 29461 ft | 453 kts | 84° |
| 2026-05-07 14:26 | 50.19788 | 6.44400 | 29742 ft | 454 kts | 84° |
| 2026-05-07 14:26 | 50.20080 | 6.49251 | 29997 ft | 456 kts | 84° |
| 2026-05-07 14:26 | 50.20372 | 6.54194 | 30237 ft | 458 kts | 84° |
| 2026-05-07 14:27 | 50.20664 | 6.59150 | 30461 ft | 459 kts | 84° |
| 2026-05-07 14:27 | 50.20927 | 6.64134 | 30650 ft | 461 kts | 88° |
| 2026-05-07 14:27 | 50.20894 | 6.69140 | 30866 ft | 463 kts | 91° |
| 2026-05-07 14:27 | 50.20810 | 6.74174 | 31123 ft | 463 kts | 91° |
| 2026-05-07 14:28 | 50.20724 | 6.79184 | 31410 ft | 462 kts | 91° |
| 2026-05-07 14:28 | 50.20637 | 6.84198 | 31692 ft | 462 kts | 91° |
| 2026-05-07 14:28 | 50.20547 | 6.89202 | 31976 ft | 461 kts | 91° |
| 2026-05-07 14:28 | 50.20453 | 6.94199 | 32276 ft | 460 kts | 91° |
| 2026-05-07 14:29 | 50.20355 | 6.99192 | 32572 ft | 460 kts | 91° |
| 2026-05-07 14:29 | 50.20255 | 7.04168 | 32849 ft | 459 kts | 91° |
| 2026-05-07 14:29 | 50.20150 | 7.09156 | 33119 ft | 459 kts | 91° |
| 2026-05-07 14:29 | 50.20045 | 7.14135 | 33394 ft | 458 kts | 91° |
| 2026-05-07 14:30 | 50.19941 | 7.19111 | 33684 ft | 458 kts | 91° |
| 2026-05-07 14:30 | 50.19837 | 7.24070 | 33961 ft | 457 kts | 91° |
| 2026-05-07 14:30 | 50.19732 | 7.29013 | 34216 ft | 457 kts | 91° |
| 2026-05-07 14:30 | 50.19554 | 7.33973 | 34429 ft | 457 kts | 96° |
| 2026-05-07 14:31 | 50.19123 | 7.38899 | 34620 ft | 458 kts | 97° |
| 2026-05-07 14:31 | 50.18682 | 7.43828 | 34820 ft | 458 kts | 98° |
| 2026-05-07 14:31 | 50.18244 | 7.48690 | 34990 ft | 459 kts | 98° |
| 2026-05-07 14:32 | 50.17345 | 7.58561 | 35055 ft | 455 kts | 98° |
| 2026-05-07 14:32 | 50.16457 | 7.68268 | 35049 ft | 455 kts | 98° |
| 2026-05-07 14:33 | 50.15554 | 7.78104 | 35047 ft | 455 kts | 98° |
| 2026-05-07 14:33 | 50.14658 | 7.87807 | 35051 ft | 455 kts | 98° |
| 2026-05-07 14:34 | 50.13745 | 7.97573 | 35055 ft | 455 kts | 98° |
| 2026-05-07 14:34 | 50.12828 | 8.07320 | 35052 ft | 455 kts | 98° |
| 2026-05-07 14:35 | 50.11894 | 8.17095 | 35054 ft | 455 kts | 98° |
| 2026-05-07 14:35 | 50.10952 | 8.26837 | 35055 ft | 455 kts | 98° |
| 2026-05-07 14:36 | 50.10001 | 8.36584 | 35055 ft | 455 kts | 98° |
| 2026-05-07 14:36 | 50.09045 | 8.46313 | 35060 ft | 455 kts | 98° |
| 2026-05-07 14:37 | 50.08080 | 8.56057 | 35056 ft | 455 kts | 99° |
| 2026-05-07 14:37 | 50.06614 | 8.70643 | 35051 ft | 454 kts | 99° |
| 2026-05-07 14:38 | 50.05670 | 8.80366 | 35054 ft | 454 kts | 95° |
| 2026-05-07 14:38 | 50.05236 | 8.90127 | 35051 ft | 455 kts | 94° |
| 2026-05-07 14:39 | 50.04824 | 8.99947 | 35054 ft | 454 kts | 94° |
| 2026-05-07 14:39 | 50.04405 | 9.09767 | 35053 ft | 455 kts | 94° |
| 2026-05-07 14:40 | 50.03955 | 9.19520 | 35049 ft | 454 kts | 94° |
| 2026-05-07 14:40 | 50.03509 | 9.29329 | 35047 ft | 454 kts | 94° |
| 2026-05-07 14:41 | 50.03060 | 9.39128 | 35046 ft | 454 kts | 94° |